メインページ
METAR-TAF:

METAR-TAF

空港 :

ハト国際空港

キュラソー島, オランダ領アンティル

緯度: 12-12N, 経度: 068-58W, 海抜: 9m

現時点の気象観測

当レポートは43分前の20:00(UTC)に作成
の風 13kt
気温 29°C
湿度 66%
気圧 1014 hPa
視程10km以上

METAR: TNCC 212000Z AUTO 10013KT 9999 NSC 29/22 Q1014 NOSIG

時間: 16:43 (20:43 UTC)

予報

当レポートは4時間43分前の16:00(UTC)に作成
予報は21日の 18時(UTC)から 22日の 18時(UTC)まで有効
の風 15kt
視程10km以上
高度1800ftの雲は散在している
22日の 04時(UTC)から 22日の 10時(UTC)まで一時的に
高度1400ftの千切れ雲あり

TAF: TNCC 211600Z 2118/2218 10015KT 9999 SCT018 TEMPO 2204/2210 BKN014

4,000以上の空港の気象観測と天気予報(METAR報とTAF報)

利用可能な観測所は地図上に黄色い丸と赤い丸で示す。

丸の上にカーソルを重ねると観測所名を参照できる。

次にクリックすると気象観測と天気予報を参照できる。

マップの切り替え:黒色「×」印の緑ボタンをクリックして拡大、「-」印の緑ボタンをクリックして縮小、緑色の三角印をクリックして隣りの地図に切り替え


METAR-TAF: